Time;durP1;ratioP1;P1;durP2;ratioP2;P2;SDS_P1;SDS_P2;PMS_P1;PMS_P2;Temp;Humidity;BMP_temperature;BMP_pressure;BME280_temperature;BME280_humidity;BME280_pressure;Samples;Min_cycle;Max_cycle;Signal;HPM_P1;HPM_P2
2022/04/22 00:01:33;;;;;;;0.25;0.25;;;13.30;99.90;;;;;;4999596;28;20046;-69
2022/04/22 00:03:59;;;;;;;0.10;0.10;;;13.30;99.90;;;;;;4994484;28;20427;-69
2022/04/22 00:06:24;;;;;;;1.02;0.63;;;13.10;99.90;;;;;;5009265;28;20073;-68
2022/04/22 00:08:50;;;;;;;0.20;0.20;;;13.10;99.90;;;;;;5010131;28;20046;-69
2022/04/22 00:11:31;;;;;;;0.10;0.10;;;13.20;99.90;;;;;;5009145;28;20052;-69
2022/04/22 00:14:04;;;;;;;0.20;0.20;;;13.20;99.90;;;;;;5006432;28;20052;-69
2022/04/22 00:16:31;;;;;;;0.40;0.40;;;13.10;99.90;;;;;;5003115;28;20065;-68
2022/04/22 00:18:57;;;;;;;0.73;0.73;;;13.00;99.90;;;;;;5009710;28;20588;-69
2022/04/22 00:21:23;;;;;;;0.73;0.30;;;13.10;99.90;;;;;;5015938;28;20497;-68
2022/04/22 00:23:50;;;;;;;0.00;0.00;;;13.00;99.90;;;;;;5009904;28;20046;-68
2022/04/22 00:26:17;;;;;;;0.03;0.03;;;12.80;99.90;;;;;;5010345;28;20133;-68
2022/04/22 00:28:42;;;;;;;0.47;0.35;;;12.90;99.90;;;;;;5006847;28;20046;-68
2022/04/22 00:31:08;;;;;;;0.30;0.30;;;12.80;99.90;;;;;;5002133;28;20402;-69
2022/04/22 00:33:34;;;;;;;0.00;0.00;;;12.70;99.90;;;;;;5009256;28;20041;-68
2022/04/22 00:35:59;;;;;;;0.30;0.30;;;12.70;99.90;;;;;;5009088;28;20046;-68
2022/04/22 00:38:25;;;;;;;0.00;0.00;;;12.70;99.90;;;;;;5008894;28;20053;-68
2022/04/22 00:40:52;;;;;;;0.20;0.20;;;12.80;99.90;;;;;;5008996;28;20045;-68
2022/04/22 00:43:22;;;;;;;0.08;0.08;;;12.80;99.90;;;;;;5010040;28;20053;-68
2022/04/22 00:45:49;;;;;;;0.60;0.60;;;12.80;99.90;;;;;;4998886;28;20800;-68
2022/04/22 00:48:16;;;;;;;0.03;0.03;;;12.80;99.90;;;;;;5024249;28;20115;-68
2022/04/22 00:50:42;;;;;;;0.35;0.35;;;12.80;99.90;;;;;;5007220;28;20044;-68
2022/04/22 00:53:08;;;;;;;6.85;0.65;;;12.60;99.90;;;;;;5010004;28;20141;-68
2022/04/22 00:55:36;;;;;;;1.20;1.10;;;12.70;99.90;;;;;;5010716;28;20058;-68
2022/04/22 00:58:03;;;;;;;1.25;1.17;;;12.80;99.90;;;;;;5009850;28;20042;-68
2022/04/22 01:00:29;;;;;;;0.10;0.10;;;12.80;99.90;;;;;;5012683;28;20485;-68
2022/04/22 01:02:55;;;;;;;0.28;0.22;;;12.70;99.90;;;;;;5011344;28;20529;-68
2022/04/22 01:10:53;;;;;;;3.25;0.30;;;12.60;99.90;;;;;;5010313;28;20096;-69
2022/04/22 01:13:20;;;;;;;0.10;0.10;;;12.60;99.90;;;;;;5012609;28;20093;-68
2022/04/22 01:15:46;;;;;;;0.45;0.45;;;12.50;99.90;;;;;;5008759;28;20057;-68
2022/04/22 01:18:13;;;;;;;0.10;0.10;;;12.30;99.90;;;;;;5008306;28;20046;-68
2022/04/22 01:20:38;;;;;;;0.15;0.15;;;12.40;99.90;;;;;;5006690;28;20060;-68
2022/04/22 01:23:04;;;;;;;0.03;0.03;;;12.30;99.90;;;;;;5006000;28;20046;-68
2022/04/22 01:25:30;;;;;;;0.30;0.30;;;12.10;99.90;;;;;;5008308;28;20095;-68
2022/04/22 01:27:56;;;;;;;0.63;0.63;;;12.10;99.90;;;;;;5008210;28;20038;-68
2022/04/22 01:30:23;;;;;;;0.00;0.00;;;12.00;99.90;;;;;;5011404;28;20317;-69
2022/04/22 01:32:56;;;;;;;0.10;0.10;;;12.00;99.90;;;;;;5009367;28;20429;-68
2022/04/22 01:35:22;;;;;;;2.78;1.10;;;11.90;99.90;;;;;;5012280;28;20041;-68
2022/04/22 01:37:48;;;;;;;0.20;0.20;;;12.00;99.90;;;;;;5011951;28;20084;-68
2022/04/22 01:40:15;;;;;;;0.20;0.20;;;12.00;99.90;;;;;;5010684;28;20458;-69
2022/04/22 01:42:41;;;;;;;0.55;0.52;;;12.10;99.90;;;;;;5011109;28;20046;-69
2022/04/22 01:45:08;;;;;;;2.05;0.73;;;12.00;99.90;;;;;;5011852;28;20125;-69
2022/04/22 01:47:34;;;;;;;0.85;0.82;;;11.80;99.90;;;;;;5009378;28;20103;-69
2022/04/22 01:50:00;;;;;;;0.22;0.22;;;11.80;99.90;;;;;;5008346;28;20124;-68
2022/04/22 01:52:26;;;;;;;0.20;0.20;;;11.90;99.90;;;;;;5012968;28;20201;-69
2022/04/22 01:54:54;;;;;;;3.67;1.17;;;11.80;99.90;;;;;;5009809;28;20061;-69
2022/04/22 01:57:20;;;;;;;0.10;0.10;;;11.80;99.90;;;;;;5011238;28;20441;-69
2022/04/22 01:59:48;;;;;;;0.77;0.68;;;11.70;99.90;;;;;;5011081;28;20498;-69
2022/04/22 02:02:14;;;;;;;2.28;1.80;;;11.80;99.90;;;;;;5012292;28;20077;-69
2022/04/22 02:04:40;;;;;;;0.40;0.40;;;11.80;99.90;;;;;;5007269;28;20061;-69
2022/04/22 02:07:06;;;;;;;0.10;0.10;;;11.70;99.90;;;;;;5003181;28;20088;-69
2022/04/22 02:09:31;;;;;;;0.68;0.68;;;11.80;99.90;;;;;;5009428;28;20034;-68
2022/04/22 02:11:57;;;;;;;0.20;0.20;;;11.90;99.90;;;;;;5010961;28;20075;-68
2022/04/22 02:14:24;;;;;;;0.10;0.10;;;11.70;99.90;;;;;;5010861;28;20049;-69
2022/04/22 02:16:50;;;;;;;0.10;0.10;;;11.60;99.90;;;;;;5011705;28;20095;-69
2022/04/22 02:19:15;;;;;;;0.20;0.20;;;11.60;99.90;;;;;;5008545;28;20038;-69
2022/04/22 02:21:41;;;;;;;0.10;0.10;;;11.60;99.90;;;;;;5008692;28;20091;-69
2022/04/22 02:24:07;;;;;;;0.10;0.10;;;11.50;99.90;;;;;;5009601;28;20092;-68
2022/04/22 02:28:31;;;;;;;0.10;0.10;;;11.40;99.90;;;;;;5011083;28;20041;-68
2022/04/22 02:29:19;;;;;;;0.80;0.70;;;11.40;99.90;;;;;;5010367;28;20054;-68
2022/04/22 02:31:46;;;;;;;0.10;0.10;;;11.60;99.90;;;;;;5011322;28;20050;-68
2022/04/22 02:34:11;;;;;;;0.15;0.15;;;11.40;99.90;;;;;;5010871;28;20406;-68
2022/04/22 02:36:36;;;;;;;0.10;0.10;;;11.50;99.90;;;;;;5009737;28;20042;-68
2022/04/22 02:39:02;;;;;;;0.85;0.40;;;11.60;99.90;;;;;;5010159;28;20042;-68
2022/04/22 02:46:56;;;;;;;1.95;1.25;;;11.40;99.90;;;;;;5011014;28;20093;-68
2022/04/22 02:49:22;;;;;;;0.10;0.10;;;11.30;99.90;;;;;;5007304;28;20078;-69
2022/04/22 02:51:47;;;;;;;0.10;0.10;;;11.40;99.90;;;;;;5008945;28;20054;-69
2022/04/22 02:54:13;;;;;;;0.22;0.22;;;11.40;99.90;;;;;;5007860;28;20042;-68
2022/04/22 02:56:38;;;;;;;0.35;0.20;;;11.30;99.90;;;;;;5000658;28;20423;-69
2022/04/22 02:59:05;;;;;;;0.28;0.28;;;11.30;99.90;;;;;;5011607;28;20092;-69
2022/04/22 03:01:31;;;;;;;1.00;0.75;;;11.40;99.90;;;;;;5010596;28;20050;-69
2022/04/22 03:03:57;;;;;;;0.77;0.77;;;11.40;99.90;;;;;;5008253;28;20192;-69
2022/04/22 03:06:26;;;;;;;0.13;0.13;;;11.30;99.90;;;;;;5008581;28;20046;-68
2022/04/22 03:08:52;;;;;;;0.65;0.43;;;11.50;99.90;;;;;;5006901;28;20125;-69
2022/04/22 03:11:21;;;;;;;0.10;0.10;;;11.50;99.90;;;;;;5009004;28;20046;-68
2022/04/22 03:13:49;;;;;;;0.17;0.17;;;11.40;99.90;;;;;;5008238;28;20046;-68
2022/04/22 03:16:17;;;;;;;0.08;0.08;;;11.40;99.90;;;;;;5009715;28;20052;-68
2022/04/22 03:18:42;;;;;;;0.00;0.00;;;11.60;99.90;;;;;;5010387;28;20410;-69
2022/04/22 03:21:08;;;;;;;0.20;0.20;;;11.40;99.90;;;;;;4991867;28;20045;-69
2022/04/22 03:23:34;;;;;;;0.65;0.65;;;11.40;99.90;;;;;;5002877;28;20057;-68
2022/04/22 03:25:59;;;;;;;0.00;0.00;;;11.40;99.90;;;;;;5010168;28;20034;-68
2022/04/22 03:28:25;;;;;;;0.47;0.47;;;11.30;99.90;;;;;;5008849;28;20065;-68
2022/04/22 03:30:51;;;;;;;0.15;0.15;;;11.30;99.90;;;;;;5008228;28;20068;-68
2022/04/22 03:33:17;;;;;;;0.05;0.05;;;11.30;99.90;;;;;;5009793;28;20470;-68
2022/04/22 03:35:44;;;;;;;0.45;0.45;;;11.20;99.90;;;;;;5010190;28;20050;-68
2022/04/22 03:38:11;;;;;;;0.00;0.00;;;11.30;99.90;;;;;;5010225;28;20451;-68
2022/04/22 03:40:36;;;;;;;0.43;0.40;;;11.20;99.90;;;;;;5009366;28;20049;-68
2022/04/22 03:43:03;;;;;;;0.30;0.30;;;11.10;99.90;;;;;;5009620;28;20100;-68
2022/04/22 03:45:29;;;;;;;0.10;0.10;;;11.20;99.90;;;;;;5009515;28;20057;-68
2022/04/22 03:47:58;;;;;;;0.08;0.08;;;11.20;99.90;;;;;;5009581;28;20042;-68
2022/04/22 03:50:25;;;;;;;0.00;0.00;;;11.20;99.90;;;;;;5009999;28;20054;-69
2022/04/22 03:52:51;;;;;;;1.92;0.38;;;11.20;99.90;;;;;;5009551;28;20153;-68
2022/04/22 03:55:17;;;;;;;0.20;0.20;;;11.00;99.90;;;;;;5006246;28;20133;-68
2022/04/22 03:58:15;;;;;;;0.10;0.10;;;11.10;99.90;;;;;;5006672;28;20050;-69
2022/04/22 04:00:34;;;;;;;0.10;0.10;;;11.00;99.90;;;;;;4987052;28;20081;-69
2022/04/22 04:03:01;;;;;;;0.28;0.28;;;11.00;99.90;;;;;;4990470;28;20070;-68
2022/04/22 04:05:27;;;;;;;0.45;0.45;;;10.90;99.90;;;;;;5003876;28;20107;-68
2022/04/22 04:07:53;;;;;;;2.67;1.42;;;11.00;99.90;;;;;;5009431;28;20034;-68
2022/04/22 04:15:59;;;;;;;0.20;0.20;;;10.90;99.90;;;;;;5010159;28;20175;-69
2022/04/22 04:18:26;;;;;;;0.75;0.52;;;10.90;99.90;;;;;;5008791;28;20477;-69
2022/04/22 04:23:36;;;;;;;0.10;0.10;;;10.70;99.90;;;;;;5009767;28;20188;-69
2022/04/22 04:26:01;;;;;;;0.03;0.03;;;10.90;99.90;;;;;;5003203;28;20506;-69
2022/04/22 04:28:27;;;;;;;0.10;0.10;;;10.90;99.90;;;;;;5008182;28;20504;-70
2022/04/22 04:30:56;;;;;;;0.03;0.03;;;10.80;99.90;;;;;;5012921;28;20060;-70
2022/04/22 04:33:22;;;;;;;0.03;0.03;;;10.80;99.90;;;;;;5012378;28;20128;-69
2022/04/22 04:35:47;;;;;;;0.10;0.10;;;10.60;99.90;;;;;;5013015;28;20196;-69
2022/04/22 04:38:14;;;;;;;0.10;0.10;;;10.70;99.90;;;;;;5013853;28;20049;-70
2022/04/22 04:40:39;;;;;;;0.30;0.30;;;10.80;99.90;;;;;;5017851;28;20053;-69
2022/04/22 04:43:08;;;;;;;0.82;0.73;;;10.70;99.90;;;;;;5026593;28;20159;-69
2022/04/22 04:45:35;;;;;;;0.10;0.10;;;10.60;99.90;;;;;;5012112;28;20438;-69
2022/04/22 04:48:01;;;;;;;1.85;0.75;;;10.50;99.90;;;;;;5012898;28;20034;-69
2022/04/22 04:50:26;;;;;;;0.10;0.10;;;10.60;99.90;;;;;;5006022;28;20054;-68
2022/04/22 04:52:52;;;;;;;0.10;0.10;;;10.70;99.90;;;;;;5007631;28;20041;-69
2022/04/22 04:55:17;;;;;;;0.00;0.00;;;10.60;99.90;;;;;;5010449;28;20057;-68
2022/04/22 04:57:43;;;;;;;0.38;0.38;;;10.60;99.90;;;;;;5011466;28;20077;-68
2022/04/22 05:00:10;;;;;;;0.20;0.20;;;10.50;99.90;;;;;;5039320;28;20251;-68
2022/04/22 05:02:36;;;;;;;0.60;0.60;;;10.70;99.90;;;;;;5001901;28;20046;-68
2022/04/22 05:05:05;;;;;;;0.20;0.20;;;10.70;99.90;;;;;;4993509;28;20042;-69
2022/04/22 05:07:31;;;;;;;0.20;0.20;;;10.70;99.90;;;;;;5011265;28;20104;-69
2022/04/22 05:09:56;;;;;;;0.50;0.50;;;10.60;99.90;;;;;;5016835;28;20057;-69
2022/04/22 05:12:22;;;;;;;0.08;0.08;;;10.60;99.90;;;;;;5028565;28;20045;-69
2022/04/22 05:14:47;;;;;;;0.32;0.32;;;10.60;99.90;;;;;;5012506;28;20425;-68
2022/04/22 05:17:13;;;;;;;0.20;0.20;;;10.50;99.90;;;;;;5009930;28;20049;-69
2022/04/22 05:19:38;;;;;;;0.08;0.08;;;10.50;99.90;;;;;;5012555;28;20041;-69
2022/04/22 05:22:04;;;;;;;0.10;0.10;;;10.70;99.90;;;;;;5011944;28;20046;-69
2022/04/22 05:24:31;;;;;;;0.00;0.00;;;10.80;99.90;;;;;;5012218;28;20042;-68
2022/04/22 05:26:57;;;;;;;0.10;0.10;;;10.70;99.90;;;;;;5007754;28;20078;-68
2022/04/22 05:34:51;;;;;;;0.00;0.00;;;10.60;99.90;;;;;;5011048;28;20096;-68
2022/04/22 05:37:16;;;;;;;0.30;0.30;;;10.70;99.90;;;;;;5011800;28;20050;-68
2022/04/22 05:39:43;;;;;;;0.80;0.55;;;10.70;99.90;;;;;;5012922;28;20044;-68
2022/04/22 05:42:09;;;;;;;0.55;0.47;;;10.70;99.90;;;;;;5023089;28;20045;-68
2022/04/22 05:44:35;;;;;;;0.10;0.10;;;10.60;99.90;;;;;;5009803;28;20044;-68
2022/04/22 05:47:01;;;;;;;0.00;0.00;;;10.70;99.90;;;;;;5006529;28;20076;-69
2022/04/22 05:49:27;;;;;;;0.63;0.60;;;10.70;99.90;;;;;;5005761;28;20474;-68
2022/04/22 05:51:54;;;;;;;0.10;0.10;;;10.80;99.90;;;;;;5007419;28;20049;-69
2022/04/22 05:54:20;;;;;;;0.25;0.25;;;10.70;99.90;;;;;;5013681;28;20042;-69
2022/04/22 05:56:45;;;;;;;0.30;0.30;;;10.70;99.90;;;;;;5010841;28;20045;-69
2022/04/22 05:59:11;;;;;;;0.65;0.65;;;10.70;99.90;;;;;;5007575;28;20049;-68
2022/04/22 06:01:36;;;;;;;0.20;0.20;;;10.80;99.90;;;;;;5007465;28;20038;-69
2022/04/22 06:04:02;;;;;;;0.20;0.20;;;11.00;99.90;;;;;;5007316;28;20044;-69
2022/04/22 06:06:27;;;;;;;0.90;0.90;;;10.80;99.90;;;;;;5008253;28;20085;-69
2022/04/22 06:11:37;;;;;;;0.10;0.10;;;10.90;99.90;;;;;;4997141;28;20053;-68
2022/04/22 06:14:03;;;;;;;0.08;0.08;;;11.00;99.90;;;;;;5010594;28;20041;-69
2022/04/22 06:16:28;;;;;;;0.10;0.10;;;11.10;99.90;;;;;;5007691;28;20045;-69
2022/04/22 06:18:54;;;;;;;0.10;0.10;;;11.10;99.90;;;;;;5008194;28;20077;-69
2022/04/22 06:21:19;;;;;;;0.10;0.10;;;11.10;99.90;;;;;;5007886;28;20485;-69
2022/04/22 06:23:45;;;;;;;0.30;0.30;;;11.10;99.90;;;;;;5007730;28;20042;-69
2022/04/22 06:26:10;;;;;;;0.00;0.00;;;11.10;99.90;;;;;;5007327;28;20103;-68
2022/04/22 06:28:36;;;;;;;0.20;0.20;;;11.10;99.90;;;;;;5008835;28;20046;-68
2022/04/22 06:31:02;;;;;;;0.10;0.10;;;11.20;99.90;;;;;;5001390;28;20494;-73
2022/04/22 06:33:27;;;;;;;0.30;0.30;;;11.30;99.90;;;;;;5002448;28;20077;-69
2022/04/22 06:35:53;;;;;;;2.00;1.45;;;11.40;99.90;;;;;;5011274;28;20076;-69
2022/04/22 06:38:19;;;;;;;0.35;0.32;;;11.30;99.90;;;;;;5009829;28;20077;-69
2022/04/22 06:46:18;;;;;;;0.10;0.10;;;11.70;99.90;;;;;;5010056;28;20052;-69
2022/04/22 06:48:44;;;;;;;0.10;0.10;;;11.70;99.90;;;;;;5008614;28;20046;-69
2022/04/22 06:51:11;;;;;;;0.10;0.10;;;11.70;99.90;;;;;;4998750;28;20034;-69
2022/04/22 06:53:37;;;;;;;0.43;0.25;;;11.90;99.90;;;;;;5008531;28;20401;-69
2022/04/22 06:56:06;;;;;;;0.10;0.10;;;11.90;99.90;;;;;;5001717;28;20057;-69
2022/04/22 06:58:34;;;;;;;0.00;0.00;;;11.90;99.90;;;;;;5010718;28;20494;-69
2022/04/22 07:01:00;;;;;;;1.65;0.35;;;12.00;99.90;;;;;;5009154;28;20038;-69
2022/04/22 07:03:25;;;;;;;0.00;0.00;;;12.00;99.90;;;;;;5010577;28;20120;-69
2022/04/22 07:05:52;;;;;;;0.20;0.20;;;12.10;99.90;;;;;;5009705;28;20108;-69
2022/04/22 07:08:19;;;;;;;0.10;0.10;;;12.10;99.50;;;;;;5042236;28;20049;-69
2022/04/22 07:10:46;;;;;;;0.30;0.30;;;12.20;99.90;;;;;;5018989;28;20046;-69
2022/04/22 07:13:12;;;;;;;0.05;0.05;;;12.30;99.90;;;;;;5004330;28;20516;-69
2022/04/22 07:15:39;;;;;;;0.20;0.20;;;12.30;99.90;;;;;;5007592;28;20457;-69
2022/04/22 07:18:05;;;;;;;0.10;0.10;;;12.50;99.90;;;;;;5008602;28;20468;-69
2022/04/22 07:20:31;;;;;;;0.28;0.28;;;12.50;99.90;;;;;;5007870;28;20408;-68
2022/04/22 07:22:59;;;;;;;0.30;0.30;;;12.60;99.90;;;;;;4991491;28;20116;-69
2022/04/22 07:25:26;;;;;;;0.25;0.25;;;12.50;99.90;;;;;;4999304;28;20045;-69
2022/04/22 07:27:52;;;;;;;0.25;0.25;;;12.60;99.80;;;;;;5010021;28;20402;-69
2022/04/22 07:30:20;;;;;;;0.10;0.10;;;12.60;99.90;;;;;;5008910;28;20052;-69
2022/04/22 07:32:46;;;;;;;0.10;0.10;;;12.70;99.90;;;;;;5008896;28;20041;-69
2022/04/22 07:35:12;;;;;;;0.05;0.05;;;12.80;99.90;;;;;;5010743;28;20037;-69
2022/04/22 07:37:39;;;;;;;0.20;0.20;;;12.90;99.90;;;;;;5008569;28;20857;-69
2022/04/22 07:40:06;;;;;;;0.10;0.10;;;12.90;99.90;;;;;;5008561;28;20038;-69
2022/04/22 07:42:33;;;;;;;0.10;0.10;;;12.90;99.80;;;;;;5006823;28;20038;-69
2022/04/22 07:47:46;;;;;;;0.03;0.03;;;13.10;99.50;;;;;;5009037;28;20058;-69
2022/04/22 07:50:15;;;;;;;0.10;0.10;;;13.20;99.60;;;;;;5007888;28;20101;-69
2022/04/22 07:52:44;;;;;;;0.00;0.00;;;13.20;98.80;;;;;;5007209;28;20046;-67
2022/04/22 07:55:10;;;;;;;0.03;0.03;;;13.20;99.20;;;;;;4998829;28;20077;-66
2022/04/22 07:57:36;;;;;;;0.10;0.10;;;13.40;99.70;;;;;;5006166;28;20050;-66
2022/04/22 08:00:03;;;;;;;0.10;0.10;;;13.40;99.80;;;;;;5003002;28;20053;-65
2022/04/22 08:02:29;;;;;;;0.08;0.08;;;13.50;99.30;;;;;;5010193;28;20053;-68
2022/04/22 08:04:54;;;;;;;0.00;0.00;;;13.50;99.30;;;;;;5009167;28;20042;-68
2022/04/22 08:07:20;;;;;;;0.15;0.15;;;13.50;99.40;;;;;;5011937;28;20041;-69
2022/04/22 08:09:46;;;;;;;0.00;0.00;;;13.50;99.30;;;;;;5023467;28;20046;-68
2022/04/22 08:12:14;;;;;;;0.30;0.30;;;13.60;99.80;;;;;;5025774;28;20046;-68
2022/04/22 08:14:40;;;;;;;0.00;0.00;;;13.70;99.00;;;;;;5008468;28;20125;-68
2022/04/22 08:17:07;;;;;;;0.00;0.00;;;13.70;99.40;;;;;;5014038;28;20069;-68
2022/04/22 08:19:33;;;;;;;0.00;0.00;;;13.80;99.70;;;;;;5001127;28;20057;-68
2022/04/22 08:21:59;;;;;;;0.00;0.00;;;13.90;98.40;;;;;;5008163;28;20424;-68
2022/04/22 08:24:24;;;;;;;0.55;0.55;;;13.90;99.30;;;;;;5013512;28;20398;-68
2022/04/22 08:26:50;;;;;;;0.10;0.10;;;13.90;99.30;;;;;;5009919;28;20398;-68
2022/04/22 08:29:16;;;;;;;0.00;0.00;;;14.00;99.00;;;;;;5011644;28;20045;-68
2022/04/22 08:31:42;;;;;;;0.00;0.00;;;14.00;99.00;;;;;;5012813;28;20048;-68
2022/04/22 08:34:08;;;;;;;0.28;0.28;;;14.20;99.40;;;;;;5006035;28;20050;-68
2022/04/22 08:36:33;;;;;;;0.00;0.00;;;14.20;98.40;;;;;;5002103;28;20165;-68
2022/04/22 08:39:00;;;;;;;0.00;0.00;;;14.20;99.00;;;;;;5014692;28;20046;-68
2022/04/22 08:41:29;;;;;;;0.30;0.30;;;14.30;98.20;;;;;;5012076;28;20038;-68
2022/04/22 08:43:58;;;;;;;0.38;0.38;;;14.70;98.60;;;;;;5012411;28;20049;-68
2022/04/22 08:51:58;;;;;;;2.67;0.55;;;15.20;97.00;;;;;;5011957;28;20500;-68
2022/04/22 08:54:27;;;;;;;0.00;0.00;;;15.70;96.80;;;;;;5011390;28;20046;-67
2022/04/22 08:56:54;;;;;;;0.43;0.43;;;16.30;96.80;;;;;;5013198;28;20054;-69
2022/04/22 08:59:19;;;;;;;0.00;0.00;;;16.80;95.60;;;;;;5004958;28;20046;-68
2022/04/22 09:01:45;;;;;;;11.80;2.50;;;17.50;93.90;;;;;;5002843;28;20045;-68
2022/04/22 09:04:11;;;;;;;0.10;0.10;;;17.80;93.70;;;;;;5013029;28;20052;-68
2022/04/22 09:06:37;;;;;;;7.13;0.35;;;17.90;93.60;;;;;;5012212;28;20061;-68
2022/04/22 09:09:04;;;;;;;1.70;0.95;;;18.10;92.90;;;;;;5013512;28;20050;-68
2022/04/22 09:11:30;;;;;;;0.10;0.10;;;18.90;92.50;;;;;;5012979;28;20054;-68
2022/04/22 09:13:59;;;;;;;0.20;0.20;;;19.10;92.00;;;;;;5010989;28;20044;-68
2022/04/22 09:16:26;;;;;;;0.00;0.00;;;19.00;90.80;;;;;;5005374;28;20045;-68
2022/04/22 09:19:00;;;;;;;1.85;1.70;;;19.10;91.10;;;;;;4993124;28;20121;-68
2022/04/22 09:21:26;;;;;;;0.10;0.10;;;19.50;91.00;;;;;;4998366;28;20176;-68
2022/04/22 09:23:53;;;;;;;8.10;0.68;;;19.30;91.00;;;;;;5011778;28;20406;-68
2022/04/22 09:26:23;;;;;;;0.00;0.00;;;19.50;90.70;;;;;;5010575;28;20037;-68
2022/04/22 09:28:58;;;;;;;0.10;0.10;;;19.90;90.70;;;;;;5009493;28;20045;-68
2022/04/22 09:31:27;;;;;;;0.13;0.13;;;19.80;90.90;;;;;;5006542;28;20046;-68
2022/04/22 09:33:54;;;;;;;0.00;0.00;;;20.00;90.40;;;;;;5003582;28;20054;-67
2022/04/22 09:45:06;;;;;;;0.03;0.03;;;19.70;90.50;;;;;;5006733;28;20100;-68
2022/04/22 09:47:33;;;;;;;0.00;0.00;;;20.20;90.10;;;;;;5011633;28;20046;-68
2022/04/22 09:50:05;;;;;;;0.00;0.00;;;20.40;90.10;;;;;;5008799;28;20508;-68
2022/04/22 09:52:34;;;;;;;0.00;0.00;;;20.50;89.60;;;;;;5009727;28;20580;-68
2022/04/22 09:55:02;;;;;;;0.00;0.00;;;20.20;89.70;;;;;;5011599;28;20092;-68
2022/04/22 09:57:40;;;;;;;0.32;0.32;;;20.50;89.80;;;;;;5011035;28;20085;-68
2022/04/22 10:00:06;;;;;;;0.43;0.38;;;20.10;89.10;;;;;;5010429;28;20593;-68
2022/04/22 10:02:32;;;;;;;0.45;0.45;;;20.30;88.80;;;;;;5003698;28;20046;-69
2022/04/22 10:04:58;;;;;;;0.15;0.15;;;20.40;89.30;;;;;;5011206;28;20041;-68
2022/04/22 10:07:30;;;;;;;0.00;0.00;;;20.50;90.10;;;;;;5011926;28;20046;-69
2022/04/22 10:10:02;;;;;;;0.00;0.00;;;20.60;88.20;;;;;;5021602;28;20049;-68
2022/04/22 10:12:30;;;;;;;0.10;0.10;;;20.80;87.90;;;;;;5010775;28;20049;-68
2022/04/22 10:14:57;;;;;;;0.00;0.00;;;20.90;88.70;;;;;;5010377;28;20045;-67
2022/04/22 10:17:24;;;;;;;0.15;0.15;;;20.60;90.30;;;;;;5011451;28;20478;-68
2022/04/22 10:19:50;;;;;;;0.50;0.50;;;20.90;90.70;;;;;;5007982;28;20050;-68
2022/04/22 10:22:18;;;;;;;0.52;0.52;;;20.60;90.10;;;;;;5023796;28;20057;-67
2022/04/22 10:24:44;;;;;;;0.10;0.10;;;20.40;91.00;;;;;;5008950;28;20049;-68
2022/04/22 10:27:12;;;;;;;0.00;0.00;;;20.20;91.20;;;;;;5010814;28;20042;-68
2022/04/22 10:29:40;;;;;;;0.00;0.00;;;19.80;91.00;;;;;;5009170;28;20050;-68
2022/04/22 10:32:06;;;;;;;0.08;0.08;;;19.60;91.00;;;;;;5010944;28;20041;-68
2022/04/22 10:34:43;;;;;;;0.00;0.00;;;19.80;91.90;;;;;;5008675;28;20406;-68
2022/04/22 10:37:19;;;;;;;0.35;0.35;;;19.90;91.00;;;;;;5027144;28;20049;-68
2022/04/22 10:39:50;;;;;;;1.08;0.43;;;19.80;91.40;;;;;;5026488;28;20132;-68
2022/04/22 10:42:16;;;;;;;4.22;0.90;;;19.70;91.70;;;;;;5008184;28;20042;-69
2022/04/22 10:47:38;;;;;;;0.38;0.38;;;19.60;91.60;;;;;;4999180;28;20068;-69
2022/04/22 10:50:25;;;;;;;0.00;0.00;;;19.80;91.80;;;;;;5009793;28;20053;-69
2022/04/22 10:53:08;;;;;;;0.05;0.05;;;19.80;91.50;;;;;;5010004;28;20609;-68
2022/04/22 10:55:41;;;;;;;0.10;0.10;;;19.90;91.30;;;;;;5010084;28;20422;-69
2022/04/22 10:58:12;;;;;;;2.60;1.13;;;19.80;90.80;;;;;;5008259;28;20161;-68
2022/04/22 11:00:41;;;;;;;1.00;0.40;;;19.60;91.40;;;;;;5009641;28;20061;-69
2022/04/22 11:03:13;;;;;;;3.42;0.90;;;19.70;91.50;;;;;;5041838;28;20045;-68
2022/04/22 11:05:47;;;;;;;0.75;0.52;;;19.60;91.30;;;;;;5012862;28;20045;-68
2022/04/22 11:08:28;;;;;;;0.65;0.38;;;19.60;90.70;;;;;;5009214;28;20049;-69
2022/04/22 11:10:53;;;;;;;0.50;0.13;;;19.90;91.40;;;;;;4999889;28;20084;-69
2022/04/22 11:13:35;;;;;;;0.75;0.75;;;19.90;91.50;;;;;;5006209;28;20037;-68
2022/04/22 11:16:11;;;;;;;0.20;0.20;;;20.00;91.40;;;;;;5008860;28;20090;-69
2022/04/22 11:18:42;;;;;;;0.10;0.10;;;19.70;91.10;;;;;;5010676;28;20049;-68
2022/04/22 11:21:17;;;;;;;0.00;0.00;;;20.10;91.70;;;;;;4991358;28;20050;-69
2022/04/22 11:23:46;;;;;;;0.00;0.00;;;19.70;91.10;;;;;;5008626;28;20513;-68
2022/04/22 11:26:16;;;;;;;0.03;0.03;;;19.70;91.60;;;;;;5010919;28;20084;-68
2022/04/22 11:28:47;;;;;;;0.52;0.52;;;19.90;91.10;;;;;;5008522;28;20046;-68
2022/04/22 11:31:14;;;;;;;0.10;0.10;;;20.20;91.60;;;;;;5008273;28;20478;-68
2022/04/22 11:34:05;;;;;;;0.20;0.20;;;20.20;91.90;;;;;;5007324;28;20505;-69
2022/04/22 11:36:41;;;;;;;0.03;0.03;;;20.50;91.80;;;;;;5006613;28;20413;-69
2022/04/22 11:39:07;;;;;;;0.28;0.22;;;20.50;90.80;;;;;;5010964;28;20124;-68
2022/04/22 11:41:32;;;;;;;0.43;0.35;;;20.40;90.80;;;;;;5008965;28;20124;-69
2022/04/22 11:43:58;;;;;;;11.60;1.58;;;20.60;91.40;;;;;;5008042;28;20913;-68
2022/04/22 11:46:23;;;;;;;0.28;0.28;;;20.50;91.80;;;;;;5007750;28;20561;-69
2022/04/22 11:48:53;;;;;;;1.23;1.05;;;20.50;91.70;;;;;;5009681;28;20046;-68
2022/04/22 11:51:19;;;;;;;0.73;0.57;;;20.60;91.30;;;;;;5009647;28;20112;-69
2022/04/22 11:53:49;;;;;;;0.10;0.10;;;20.70;90.90;;;;;;5009246;28;20118;-69
2022/04/22 11:56:23;;;;;;;0.20;0.20;;;20.60;91.80;;;;;;5008401;28;20418;-68
2022/04/22 11:58:53;;;;;;;0.55;0.55;;;21.00;92.30;;;;;;5010095;28;20407;-69
2022/04/22 12:06:55;;;;;;;0.00;0.00;;;21.10;90.90;;;;;;5010148;28;20037;-72
2022/04/22 12:09:21;;;;;;;0.52;0.52;;;21.20;90.90;;;;;;5009068;28;20050;-79
2022/04/22 12:11:50;;;;;;;0.10;0.10;;;21.20;91.10;;;;;;5002667;28;20391;-72
2022/04/22 12:14:26;;;;;;;0.10;0.10;;;21.10;91.50;;;;;;4995872;28;20085;-72
2022/04/22 12:16:59;;;;;;;0.65;0.60;;;21.20;90.90;;;;;;5000258;28;20046;-71
2022/04/22 12:19:25;;;;;;;;;;;21.20;91.20;;;;;;5008840;28;20042;-71
2022/04/22 12:21:51;;;;;;;0.17;0.17;;;21.10;91.20;;;;;;5009249;28;19924;-71
2022/04/22 12:24:17;;;;;;;0.00;0.00;;;21.00;91.10;;;;;;5019138;28;20469;-71
2022/04/22 12:26:44;;;;;;;0.55;0.20;;;21.50;92.00;;;;;;5019844;28;20037;-71
2022/04/22 12:29:18;;;;;;;0.08;0.08;;;21.80;91.20;;;;;;5009245;28;20060;-71
2022/04/22 12:31:50;;;;;;;0.10;0.10;;;21.30;90.90;;;;;;5007862;28;20518;-71
2022/04/22 12:34:26;;;;;;;0.70;0.70;;;21.20;91.30;;;;;;5000994;28;20500;-71
2022/04/22 12:36:51;;;;;;;0.00;0.00;;;21.80;91.80;;;;;;5009881;28;20405;-71
2022/04/22 12:39:42;;;;;;;0.10;0.10;;;22.00;91.20;;;;;;5008260;28;20042;-75
2022/04/22 12:42:19;;;;;;;0.47;0.45;;;22.30;91.20;;;;;;5009830;28;20050;-76
2022/04/22 12:53:34;;;;;;;0.20;0.20;;;22.20;90.60;;;;;;5011311;28;20060;-71
2022/04/22 12:56:01;;;;;;;6.72;1.65;;;21.90;89.90;;;;;;5008545;28;20409;-72
2022/04/22 12:58:27;;;;;;;0.60;0.47;;;21.70;90.60;;;;;;5006535;28;20042;-72
2022/04/22 13:00:53;;;;;;;0.10;0.10;;;22.20;90.60;;;;;;4997005;28;20108;-75
2022/04/22 13:03:21;;;;;;;0.30;0.30;;;22.10;90.40;;;;;;5009297;28;20046;-75
2022/04/22 13:05:50;;;;;;;0.20;0.17;;;22.40;91.20;;;;;;5003423;28;20478;-75
2022/04/22 13:08:16;;;;;;;4.13;2.05;;;22.30;90.30;;;;;;5012124;28;20556;-75
2022/04/22 13:10:41;;;;;;;0.00;0.00;;;22.40;90.60;;;;;;5012736;28;20078;-75
2022/04/22 13:13:08;;;;;;;0.13;0.13;;;22.60;91.30;;;;;;5013249;28;20081;-75
2022/04/22 13:15:34;;;;;;;0.00;0.00;;;22.00;90.60;;;;;;5010752;28;20109;-71
2022/04/22 13:18:00;;;;;;;0.05;0.05;;;22.20;90.60;;;;;;5002757;28;20058;-72
2022/04/22 13:20:26;;;;;;;0.10;0.10;;;22.20;90.20;;;;;;5011922;28;20092;-73
2022/04/22 13:22:51;;;;;;;0.28;0.28;;;22.10;90.10;;;;;;5012715;28;20045;-73
2022/04/22 13:25:17;;;;;;;3.60;0.22;;;22.30;90.40;;;;;;5011015;28;20451;-72
2022/04/22 13:27:44;;;;;;;0.65;0.45;;;22.50;90.50;;;;;;5000632;28;20054;-72
2022/04/22 13:30:11;;;;;;;0.00;0.00;;;22.40;90.70;;;;;;5006186;28;20371;-69
2022/04/22 13:32:38;;;;;;;1.20;0.65;;;22.40;90.80;;;;;;5011100;28;20050;-69
2022/04/22 13:35:05;;;;;;;0.65;0.65;;;22.50;91.20;;;;;;5011988;28;20038;-69
2022/04/22 13:37:34;;;;;;;0.30;0.20;;;22.40;90.20;;;;;;5012381;28;20460;-69
2022/04/22 13:40:00;;;;;;;0.45;0.45;;;22.40;89.20;;;;;;5009065;28;20404;-69
2022/04/22 13:42:25;;;;;;;0.00;0.00;;;22.40;88.60;;;;;;5010326;28;20529;-69
2022/04/22 13:53:04;;;;;;;0.50;0.25;;;22.70;90.10;;;;;;5010843;28;20402;-69
2022/04/22 13:55:30;;;;;;;0.10;0.10;;;22.20;88.60;;;;;;5004327;28;20046;-70
2022/04/22 13:57:57;;;;;;;0.00;0.00;;;22.00;90.00;;;;;;4998532;28;20054;-70
2022/04/22 14:00:23;;;;;;;0.20;0.20;;;22.60;89.60;;;;;;4993438;28;20038;-69
2022/04/22 14:02:48;;;;;;;0.10;0.10;;;22.30;90.80;;;;;;5010105;28;20096;-70
2022/04/22 14:05:20;;;;;;;6.50;0.95;;;22.60;89.80;;;;;;5009180;28;20046;-70